Time;durP1;ratioP1;P1;durP2;ratioP2;P2;SDS_P1;SDS_P2;PMS_P1;PMS_P2;Temp;Humidity;BMP_temperature;BMP_pressure;BME280_temperature;BME280_humidity;BME280_pressure;Samples;Min_cycle;Max_cycle;Signal;HPM_P1;HPM_P2
2024/02/08 00:00:30;;;;;;;3.55;3.25;;;4.60;99.90;;;;;;4973380;28;20034;-52
2024/02/08 00:02:56;;;;;;;3.05;2.85;;;4.70;99.90;;;;;;4976200;28;20033;-48
2024/02/08 00:05:21;;;;;;;4.32;3.92;;;4.60;99.90;;;;;;4972512;28;20362;-50
2024/02/08 00:07:47;;;;;;;3.72;3.42;;;4.60;99.90;;;;;;4971645;28;20065;-50
2024/02/08 00:10:13;;;;;;;4.15;3.53;;;4.60;99.90;;;;;;4971651;28;20046;-47
2024/02/08 00:12:39;;;;;;;3.92;3.63;;;4.60;99.90;;;;;;4971405;28;20291;-51
2024/02/08 00:15:06;;;;;;;4.28;3.90;;;4.70;99.90;;;;;;4971238;28;20403;-52
2024/02/08 00:17:32;;;;;;;4.32;3.95;;;4.70;99.90;;;;;;4973432;28;20097;-46
2024/02/08 00:19:57;;;;;;;6.18;4.60;;;4.70;99.90;;;;;;4971038;28;20492;-50
2024/02/08 00:22:23;;;;;;;4.85;4.43;;;4.80;99.90;;;;;;4974283;28;20480;-50
2024/02/08 00:24:48;;;;;;;4.20;3.80;;;4.90;99.90;;;;;;4973845;28;20089;-49
2024/02/08 00:27:18;;;;;;;4.90;4.45;;;4.90;99.90;;;;;;4974140;28;20035;-48
2024/02/08 00:29:43;;;;;;;5.28;4.30;;;4.90;99.90;;;;;;4974292;28;20070;-48
2024/02/08 00:32:09;;;;;;;3.42;3.13;;;4.90;99.90;;;;;;4974433;28;20031;-51
2024/02/08 00:34:35;;;;;;;3.47;3.28;;;4.90;99.90;;;;;;4974529;28;20031;-52
2024/02/08 00:37:00;;;;;;;3.70;3.40;;;4.90;99.90;;;;;;4973845;28;20037;-50
2024/02/08 00:39:26;;;;;;;8.73;3.65;;;4.90;99.90;;;;;;4974067;28;20114;-53
2024/02/08 00:41:51;;;;;;;3.58;3.28;;;4.90;99.90;;;;;;4974054;28;20366;-53
2024/02/08 00:44:18;;;;;;;3.85;3.55;;;4.90;99.90;;;;;;4972412;28;20027;-50
2024/02/08 00:46:43;;;;;;;3.35;3.05;;;4.90;99.90;;;;;;4956219;28;20027;-52
2024/02/08 00:49:09;;;;;;;2.88;2.63;;;5.00;99.90;;;;;;4972354;28;20061;-54
2024/02/08 00:51:35;;;;;;;3.33;3.13;;;5.00;99.90;;;;;;4974251;28;20412;-49
2024/02/08 00:54:01;;;;;;;97.82;58.38;;;4.90;99.90;;;;;;4973483;28;20023;-52
2024/02/08 00:56:27;;;;;;;152.30;87.13;;;4.90;99.90;;;;;;4956378;28;20028;-48
2024/02/08 00:58:52;;;;;;;21.67;14.07;;;4.90;99.90;;;;;;4956370;28;20026;-50
2024/02/08 01:01:18;;;;;;;3.28;3.08;;;5.00;99.90;;;;;;4973372;28;20481;-52
2024/02/08 01:03:44;;;;;;;3.22;3.03;;;4.90;99.90;;;;;;4973202;28;20106;-48
2024/02/08 01:06:10;;;;;;;3.50;3.20;;;4.90;99.90;;;;;;4973610;28;20558;-49
2024/02/08 01:08:36;;;;;;;3.58;3.28;;;4.90;99.90;;;;;;4973329;28;20027;-51
2024/02/08 01:11:02;;;;;;;4.47;4.07;;;5.00;99.90;;;;;;4955856;28;20503;-48
2024/02/08 01:13:29;;;;;;;4.10;3.80;;;5.00;99.90;;;;;;4973213;28;20043;-49
2024/02/08 01:15:54;;;;;;;4.22;3.90;;;5.00;99.90;;;;;;4973081;28;20393;-54
2024/02/08 01:18:20;;;;;;;3.67;3.38;;;5.10;99.90;;;;;;4972866;28;20042;-49
2024/02/08 01:20:46;;;;;;;4.05;3.75;;;5.10;99.90;;;;;;4973052;28;20123;-47
2024/02/08 01:23:12;;;;;;;4.35;4.00;;;5.10;99.90;;;;;;4955277;28;20037;-47
2024/02/08 01:25:41;;;;;;;4.05;3.75;;;5.20;99.90;;;;;;4971754;28;20488;-48
2024/02/08 01:28:07;;;;;;;4.00;3.70;;;5.30;99.90;;;;;;4973110;28;20388;-48
2024/02/08 01:30:35;;;;;;;5.88;4.43;;;5.40;99.90;;;;;;4972877;28;20038;-48
2024/02/08 01:33:01;;;;;;;4.57;4.18;;;5.40;99.90;;;;;;4972799;28;20373;-49
2024/02/08 01:35:26;;;;;;;5.47;4.95;;;5.40;99.90;;;;;;4955742;28;20033;-50
2024/02/08 01:37:53;;;;;;;5.65;5.15;;;5.50;99.90;;;;;;4955876;28;20034;-48
2024/02/08 01:40:19;;;;;;;4.57;4.18;;;5.50;99.90;;;;;;4973444;28;20018;-47
2024/02/08 01:42:48;;;;;;;4.53;4.13;;;5.50;99.90;;;;;;4959134;28;20042;-55
2024/02/08 01:45:31;;;;;;;5.68;5.18;;;5.60;99.90;;;;;;4980263;28;20492;-55
2024/02/08 01:48:15;;;;;;;4.85;4.45;;;5.60;99.90;;;;;;4981684;28;20448;-54
2024/02/08 01:50:52;;;;;;;4.18;3.88;;;5.60;99.90;;;;;;4980609;28;20035;-54
2024/02/08 01:53:27;;;;;;;4.28;3.90;;;5.60;99.90;;;;;;4971924;28;20026;-48
2024/02/08 01:55:53;;;;;;;4.13;3.83;;;5.60;99.90;;;;;;4972335;28;20050;-53
2024/02/08 01:58:22;;;;;;;4.13;3.83;;;5.60;99.90;;;;;;4972703;28;20038;-54
2024/02/08 02:00:50;;;;;;;5.00;4.60;;;5.50;99.90;;;;;;4972359;28;20054;-49
2024/02/08 02:03:19;;;;;;;5.70;5.05;;;5.60;99.90;;;;;;4972461;28;20026;-48
2024/02/08 02:05:48;;;;;;;4.80;4.40;;;5.60;99.90;;;;;;4972437;28;20019;-56
2024/02/08 02:08:21;;;;;;;5.10;4.55;;;5.70;99.90;;;;;;4972610;28;20019;-46
2024/02/08 02:11:11;;;;;;;4.70;4.22;;;5.60;99.90;;;;;;4972416;28;20023;-52
2024/02/08 02:13:39;;;;;;;6.15;4.80;;;5.60;99.90;;;;;;4972231;28;20126;-48
2024/02/08 02:16:05;;;;;;;4.90;4.35;;;5.50;99.90;;;;;;4972533;28;20135;-55
2024/02/08 02:18:31;;;;;;;4.97;4.57;;;5.50;99.90;;;;;;4972216;28;20122;-50
2024/02/08 02:20:57;;;;;;;4.68;4.28;;;5.50;99.90;;;;;;4972492;28;20027;-50
2024/02/08 02:23:24;;;;;;;4.38;4.00;;;5.40;99.90;;;;;;4970972;28;20035;-50
2024/02/08 02:25:53;;;;;;;4.15;3.80;;;5.40;99.90;;;;;;4972737;28;20022;-48
2024/02/08 02:28:20;;;;;;;3.30;3.00;;;5.40;99.90;;;;;;4972180;28;20515;-49
2024/02/08 02:30:46;;;;;;;4.40;3.20;;;5.50;99.90;;;;;;4972315;28;20106;-53
2024/02/08 02:33:13;;;;;;;4.00;3.60;;;5.40;99.90;;;;;;4972362;28;20030;-50
2024/02/08 02:35:41;;;;;;;4.03;3.72;;;5.50;99.90;;;;;;4972248;28;20035;-51
2024/02/08 02:38:12;;;;;;;3.03;2.83;;;5.40;99.90;;;;;;4954958;28;20454;-49
2024/02/08 02:40:41;;;;;;;3.05;2.85;;;5.40;99.90;;;;;;4972207;28;20407;-51
2024/02/08 02:43:09;;;;;;;2.67;2.47;;;5.50;99.90;;;;;;4972169;28;20039;-49
2024/02/08 02:45:35;;;;;;;3.10;2.90;;;5.50;99.90;;;;;;4954963;28;20027;-49
2024/02/08 02:48:02;;;;;;;3.28;3.08;;;5.50;99.90;;;;;;4955094;28;20097;-51
2024/02/08 02:50:27;;;;;;;3.65;3.35;;;5.50;99.90;;;;;;4954745;28;20070;-49
2024/02/08 02:52:53;;;;;;;3.40;3.13;;;5.50;99.90;;;;;;4972181;28;20066;-52
2024/02/08 02:55:20;;;;;;;4.60;3.33;;;5.50;99.90;;;;;;4972255;28;20473;-48
2024/02/08 02:57:46;;;;;;;4.03;3.72;;;5.50;99.90;;;;;;4972181;28;20110;-52
2024/02/08 03:00:21;;;;;;;6.18;4.15;;;5.50;99.90;;;;;;4972059;28;20066;-49
2024/02/08 03:02:57;;;;;;;4.82;4.10;;;5.40;99.90;;;;;;4972131;28;20026;-49
2024/02/08 03:05:24;;;;;;;4.03;3.72;;;5.40;99.90;;;;;;4954805;28;20034;-50
2024/02/08 03:07:50;;;;;;;3.78;3.38;;;5.30;99.90;;;;;;4972122;28;20023;-49
2024/02/08 03:10:19;;;;;;;3.50;3.20;;;5.30;99.90;;;;;;4972276;28;20041;-46
2024/02/08 03:12:51;;;;;;;4.18;3.78;;;5.30;99.90;;;;;;4974365;28;20033;-52
2024/02/08 03:15:18;;;;;;;4.38;4.00;;;5.30;99.90;;;;;;4975533;28;20080;-52
2024/02/08 03:17:45;;;;;;;4.22;3.92;;;5.20;99.90;;;;;;4974274;28;20027;-47
2024/02/08 03:20:16;;;;;;;5.32;4.05;;;5.10;99.90;;;;;;4975621;28;20110;-53
2024/02/08 03:22:43;;;;;;;4.05;3.65;;;5.10;99.90;;;;;;4958698;28;20023;-49
2024/02/08 03:25:14;;;;;;;5.28;4.78;;;5.10;99.90;;;;;;4975388;28;20033;-49
2024/02/08 03:27:42;;;;;;;4.95;4.45;;;5.20;99.90;;;;;;4975036;28;20449;-54
2024/02/08 03:30:22;;;;;;;4.82;4.32;;;5.20;99.90;;;;;;4980098;28;20373;-51
2024/02/08 03:32:55;;;;;;;4.93;4.22;;;5.30;99.90;;;;;;4980000;28;20031;-52
2024/02/08 03:35:25;;;;;;;4.60;4.20;;;5.20;99.90;;;;;;4980234;28;20027;-50
2024/02/08 03:37:52;;;;;;;5.32;4.85;;;5.20;99.90;;;;;;4982085;28;20018;-53
2024/02/08 03:40:20;;;;;;;5.40;4.90;;;5.30;99.90;;;;;;4980513;28;20077;-48
2024/02/08 03:42:47;;;;;;;5.32;4.82;;;5.30;99.90;;;;;;4975301;28;20027;-50
2024/02/08 03:45:13;;;;;;;4.90;4.47;;;5.40;99.90;;;;;;4974920;28;20046;-52
2024/02/08 03:47:39;;;;;;;4.72;4.32;;;5.40;99.90;;;;;;4973508;28;20027;-50
2024/02/08 03:50:05;;;;;;;5.85;5.25;;;5.40;99.90;;;;;;4974814;28;20037;-52
2024/02/08 03:52:30;;;;;;;4.53;4.13;;;5.30;99.90;;;;;;4974713;28;20463;-49
2024/02/08 03:54:59;;;;;;;5.15;4.57;;;5.20;99.90;;;;;;4974546;28;20504;-48
2024/02/08 03:57:25;;;;;;;5.10;4.30;;;5.10;99.90;;;;;;4974850;28;20563;-52
2024/02/08 03:59:52;;;;;;;5.18;4.55;;;5.20;99.90;;;;;;4974724;28;20118;-49
2024/02/08 04:02:21;;;;;;;5.57;4.85;;;5.20;99.90;;;;;;4973210;28;20521;-48
2024/02/08 04:04:52;;;;;;;6.38;5.78;;;5.30;99.90;;;;;;4974450;28;20023;-48
2024/02/08 04:07:45;;;;;;;6.45;5.47;;;5.30;99.90;;;;;;4974725;28;20106;-49
2024/02/08 04:10:18;;;;;;;5.60;4.97;;;5.30;99.90;;;;;;4974065;28;20027;-51
2024/02/08 04:53:55;;;;;;;6.50;5.68;;;5.30;99.90;;;;;;5012847;28;20040;-48
2024/02/08 04:56:21;;;;;;;5.93;5.32;;;5.30;99.90;;;;;;5012828;28;20100;-51
2024/02/08 04:58:47;;;;;;;4.55;4.15;;;5.30;99.90;;;;;;5012757;28;20030;-47
2024/02/08 05:01:13;;;;;;;6.63;4.72;;;5.20;99.90;;;;;;5011705;28;20061;-48
2024/02/08 05:03:43;;;;;;;6.30;4.85;;;5.30;99.90;;;;;;4995143;28;20025;-47
2024/02/08 05:06:18;;;;;;;6.85;5.10;;;5.30;99.90;;;;;;5012728;28;20026;-55
2024/02/08 05:08:57;;;;;;;4.38;3.97;;;5.50;99.90;;;;;;4994926;28;20025;-49
2024/02/08 05:11:24;;;;;;;4.95;4.45;;;5.40;99.90;;;;;;5012878;28;20026;-48
2024/02/08 05:13:50;;;;;;;4.57;4.15;;;5.30;99.90;;;;;;5012432;28;20026;-50
2024/02/08 05:16:17;;;;;;;5.50;4.80;;;5.40;99.90;;;;;;5012789;28;20157;-49
2024/02/08 05:18:48;;;;;;;5.40;4.40;;;5.40;99.90;;;;;;5012460;28;20021;-50
2024/02/08 05:21:15;;;;;;;6.25;4.95;;;5.30;99.90;;;;;;5012678;28;20033;-51
2024/02/08 05:23:42;;;;;;;5.57;4.53;;;5.40;99.90;;;;;;5012270;28;20022;-47
2024/02/08 05:26:18;;;;;;;6.97;5.57;;;5.30;99.90;;;;;;5013424;28;20029;-49
2024/02/08 05:28:48;;;;;;;7.82;5.60;;;5.20;99.90;;;;;;5012935;28;20041;-52
2024/02/08 05:31:17;;;;;;;5.55;4.60;;;5.30;99.90;;;;;;5012736;28;20117;-49
2024/02/08 05:33:43;;;;;;;5.78;4.78;;;5.30;99.90;;;;;;5012120;28;20032;-50
2024/02/08 05:36:12;;;;;;;6.72;5.07;;;5.30;99.90;;;;;;5012081;28;20490;-53
2024/02/08 05:38:41;;;;;;;6.32;4.88;;;5.30;99.90;;;;;;5012149;28;20036;-52
2024/02/08 05:41:08;;;;;;;5.07;4.55;;;5.30;99.90;;;;;;5012265;28;20026;-49
2024/02/08 05:43:46;;;;;;;7.00;4.90;;;5.30;99.90;;;;;;5011945;28;20022;-49
2024/02/08 05:46:19;;;;;;;7.50;5.20;;;5.40;99.90;;;;;;5012033;28;20390;-48
2024/02/08 05:48:51;;;;;;;6.00;4.78;;;5.30;99.90;;;;;;5012016;28;20105;-52
2024/02/08 05:51:20;;;;;;;5.78;4.45;;;5.30;99.90;;;;;;5011759;28;20053;-48
2024/02/08 05:53:47;;;;;;;6.28;4.80;;;5.30;99.90;;;;;;5011191;28;20037;-49
2024/02/08 05:56:15;;;;;;;7.72;4.80;;;5.30;99.90;;;;;;5011984;28;20030;-48
2024/02/08 05:58:44;;;;;;;5.07;4.10;;;5.30;99.90;;;;;;5012063;28;20030;-48
2024/02/08 06:01:21;;;;;;;4.00;3.47;;;5.30;99.90;;;;;;5012043;28;20106;-49
2024/02/08 06:03:47;;;;;;;4.95;4.25;;;5.20;99.90;;;;;;5011566;28;20057;-48
2024/02/08 06:06:26;;;;;;;4.97;4.10;;;5.20;99.90;;;;;;4994146;28;20554;-48
2024/02/08 06:08:56;;;;;;;5.10;4.25;;;5.20;99.90;;;;;;4994230;28;20318;-48
2024/02/08 06:11:27;;;;;;;7.15;4.35;;;5.20;99.90;;;;;;5011815;28;20180;-45
2024/02/08 06:14:06;;;;;;;5.25;3.92;;;5.10;99.90;;;;;;5011503;28;20055;-49
2024/02/08 06:16:45;;;;;;;6.53;4.75;;;5.10;99.90;;;;;;4994392;28;20506;-52
2024/02/08 06:19:14;;;;;;;5.70;4.45;;;5.10;99.90;;;;;;5011810;28;20029;-49
2024/02/08 06:21:45;;;;;;;4.78;4.28;;;5.10;99.90;;;;;;5011967;28;20014;-48
2024/02/08 06:26:58;;;;;;;5.93;4.03;;;5.20;99.90;;;;;;5012138;28;20033;-49
2024/02/08 06:29:38;;;;;;;6.95;4.25;;;5.20;99.90;;;;;;5011689;28;20026;-52
2024/02/08 06:32:23;;;;;;;4.30;3.83;;;5.20;99.90;;;;;;5011821;28;20037;-50
2024/02/08 06:35:08;;;;;;;6.23;4.80;;;5.20;99.90;;;;;;5011916;28;20510;-51
2024/02/08 06:37:43;;;;;;;4.80;4.30;;;5.30;99.90;;;;;;5011729;28;20269;-53
2024/02/08 06:40:24;;;;;;;7.25;4.53;;;5.30;99.90;;;;;;4993952;28;20361;-48
2024/02/08 07:37:17;;;;;;;7.72;5.18;;;5.30;99.90;;;;;;5014556;28;20029;-49
2024/02/08 07:39:46;;;;;;;8.15;5.07;;;5.40;99.90;;;;;;4997489;28;20499;-53
2024/02/08 07:42:20;;;;;;;7.70;6.00;;;5.30;99.90;;;;;;5013118;28;20120;-53
2024/02/08 07:44:50;;;;;;;7.13;5.45;;;5.30;99.90;;;;;;5013037;28;20025;-52
2024/02/08 07:47:24;;;;;;;9.32;6.05;;;5.30;99.90;;;;;;5014344;28;20021;-52
2024/02/08 07:49:49;;;;;;;7.47;5.47;;;5.20;99.90;;;;;;5014130;28;20018;-52
2024/02/08 07:52:19;;;;;;;9.48;5.30;;;5.30;99.90;;;;;;5014595;28;20064;-48
2024/02/08 07:55:14;;;;;;;9.27;6.07;;;5.30;99.90;;;;;;4996444;28;20030;-50
2024/02/08 07:57:57;;;;;;;11.15;6.07;;;5.30;99.90;;;;;;4996203;28;20022;-51
2024/02/08 08:00:42;;;;;;;7.72;6.03;;;5.40;99.90;;;;;;4996381;28;20491;-49
2024/02/08 08:03:15;;;;;;;8.73;5.53;;;5.30;99.90;;;;;;5014095;28;20041;-48
2024/02/08 08:05:42;;;;;;;6.72;5.35;;;5.40;99.90;;;;;;5013573;28;20018;-50
2024/02/08 08:11:02;;;;;;;7.90;6.15;;;5.50;99.90;;;;;;5013650;28;20028;-48
2024/02/08 08:19:09;;;;;;;6.00;5.15;;;5.70;99.90;;;;;;5013633;28;20026;-51
2024/02/08 08:24:25;;;;;;;4.28;3.88;;;5.50;99.90;;;;;;5013605;28;20056;-48
2024/02/08 08:27:25;;;;;;;3.53;3.08;;;5.50;99.90;;;;;;5013932;28;20250;-49
2024/02/08 08:29:52;;;;;;;2.85;2.65;;;5.50;99.90;;;;;;5013464;28;20026;-52
2024/02/08 08:37:45;;;;;;;3.25;2.95;;;5.60;99.90;;;;;;5013925;28;20033;-52
2024/02/08 08:42:58;;;;;;;3.42;2.90;;;5.70;99.90;;;;;;5013205;28;20084;-51
2024/02/08 08:45:24;;;;;;;3.08;2.85;;;5.70;99.90;;;;;;4995438;28;20025;-49
2024/02/08 08:48:00;;;;;;;3.15;2.85;;;5.70;99.90;;;;;;5013369;28;20050;-49
2024/02/08 08:50:31;;;;;;;3.67;3.03;;;5.80;99.90;;;;;;5012798;28;20125;-54
2024/02/08 08:52:58;;;;;;;2.97;2.72;;;5.80;99.90;;;;;;5013065;28;20018;-55
2024/02/08 08:55:24;;;;;;;3.55;3.25;;;5.80;99.90;;;;;;5005948;28;20065;-50
2024/02/08 08:58:00;;;;;;;3.72;2.80;;;5.80;99.90;;;;;;4993322;28;20026;-50
2024/02/08 09:00:32;;;;;;;4.78;4.10;;;5.70;99.90;;;;;;4993362;28;20065;-50
2024/02/08 09:02:59;;;;;;;3.72;2.72;;;5.70;99.90;;;;;;4973392;28;20031;-51
2024/02/08 09:05:30;;;;;;;3.25;2.95;;;5.60;99.90;;;;;;4982230;28;20034;-53
2024/02/08 09:08:00;;;;;;;3.88;3.15;;;5.60;99.90;;;;;;4981147;28;20031;-57
2024/02/08 09:10:34;;;;;;;6.32;3.33;;;5.60;99.90;;;;;;4973141;28;20050;-55
2024/02/08 09:13:07;;;;;;;4.72;3.47;;;5.70;99.90;;;;;;4979201;28;20476;-56
2024/02/08 09:15:47;;;;;;;4.47;3.65;;;5.80;99.90;;;;;;4992860;28;20122;-55
2024/02/08 09:18:15;;;;;;;4.75;3.17;;;5.80;99.90;;;;;;4990523;28;20069;-54
2024/02/08 09:20:41;;;;;;;3.60;3.08;;;5.70;99.90;;;;;;4990268;28;20026;-55
2024/02/08 09:23:13;;;;;;;4.07;3.67;;;5.70;99.90;;;;;;4974130;28;20066;-55
2024/02/08 09:25:44;;;;;;;4.38;3.97;;;5.60;99.90;;;;;;4977955;28;20023;-58
2024/02/08 09:28:23;;;;;;;6.40;4.43;;;5.70;99.90;;;;;;4982426;28;20026;-51
2024/02/08 09:30:52;;;;;;;5.88;4.40;;;5.70;99.90;;;;;;4973948;28;20026;-47
2024/02/08 09:33:31;;;;;;;5.22;3.70;;;5.70;99.90;;;;;;4992210;28;20077;-52
2024/02/08 09:36:00;;;;;;;6.63;4.38;;;5.70;99.90;;;;;;4992727;28;20644;-51
2024/02/08 09:38:42;;;;;;;4.28;3.45;;;5.60;99.90;;;;;;4983731;28;20045;-51
2024/02/08 09:41:15;;;;;;;3.72;3.35;;;5.60;99.90;;;;;;4986887;28;20117;-50
2024/02/08 09:43:45;;;;;;;4.32;3.17;;;5.70;99.90;;;;;;4975070;28;20089;-49
2024/02/08 09:46:28;;;;;;;3.88;3.53;;;5.80;99.90;;;;;;4992608;28;20053;-49
2024/02/08 09:49:01;;;;;;;3.80;3.00;;;5.90;99.90;;;;;;4992905;28;20387;-48
2024/02/08 09:51:35;;;;;;;5.00;3.33;;;5.80;99.90;;;;;;4992622;28;20499;-50
2024/02/08 09:54:15;;;;;;;3.13;2.67;;;5.90;99.90;;;;;;4992251;28;20050;-49
2024/02/08 09:56:50;;;;;;;3.03;2.72;;;5.90;99.90;;;;;;4990977;28;20407;-52
2024/02/08 09:59:33;;;;;;;6.13;3.07;;;5.90;99.90;;;;;;4992434;28;20113;-50
2024/02/08 10:02:04;;;;;;;3.13;2.90;;;5.90;99.90;;;;;;4992331;28;20026;-52
2024/02/08 10:04:32;;;;;;;2.88;2.65;;;6.00;99.90;;;;;;4990921;28;20108;-52
2024/02/08 10:07:05;;;;;;;3.17;2.85;;;6.00;99.90;;;;;;4991053;28;20018;-50
2024/02/08 10:09:35;;;;;;;2.97;2.55;;;6.00;99.90;;;;;;4990883;28;20161;-53
2024/02/08 10:12:08;;;;;;;3.35;3.05;;;6.00;99.90;;;;;;4992129;28;20102;-50
2024/02/08 10:14:45;;;;;;;3.22;2.92;;;6.10;99.90;;;;;;4992149;28;20488;-54
2024/02/08 10:17:15;;;;;;;2.65;2.45;;;6.20;99.90;;;;;;4992221;28;20034;-54
2024/02/08 10:23:08;;;;;;;5.95;2.75;;;6.30;99.90;;;;;;4996275;28;20042;-54
2024/02/08 10:28:23;;;;;;;3.35;2.63;;;6.40;99.90;;;;;;4995210;28;20439;-57
2024/02/08 10:31:07;;;;;;;2.67;2.47;;;6.40;99.90;;;;;;4979617;28;20030;-53
2024/02/08 10:33:37;;;;;;;8.82;3.67;;;6.50;99.90;;;;;;4976519;28;20043;-56
2024/02/08 10:36:08;;;;;;;3.03;2.72;;;6.60;99.90;;;;;;4977004;28;20443;-57
2024/02/08 10:38:55;;;;;;;3.58;2.85;;;6.50;99.90;;;;;;4980657;28;20396;-50
2024/02/08 10:44:29;;;;;;;3.67;2.70;;;6.60;99.90;;;;;;4916344;29;20097;-54
2024/02/08 10:47:09;;;;;;;2.95;2.45;;;6.60;99.90;;;;;;4966203;28;20050;-50
2024/02/08 10:49:42;;;;;;;3.30;2.50;;;6.50;99.90;;;;;;4976325;28;21144;-55
2024/02/08 10:52:11;;;;;;;3.53;3.22;;;6.50;99.90;;;;;;4976513;28;20058;-52
2024/02/08 10:54:48;;;;;;;3.50;3.20;;;6.50;99.90;;;;;;4979842;28;20022;-54
2024/02/08 10:59:59;;;;;;;7.07;3.50;;;6.50;99.90;;;;;;4975647;28;20038;-54
2024/02/08 11:02:32;;;;;;;3.83;2.80;;;6.50;99.90;;;;;;4985781;28;20499;-52
2024/02/08 11:05:21;;;;;;;3.75;3.50;;;6.50;99.90;;;;;;4994674;28;20026;-50
2024/02/08 11:07:48;;;;;;;3.47;3.17;;;6.50;99.90;;;;;;4994996;28;20026;-53
2024/02/08 11:10:23;;;;;;;5.53;3.08;;;6.50;99.90;;;;;;4992858;28;20023;-49
2024/02/08 11:12:55;;;;;;;6.35;3.00;;;6.60;99.90;;;;;;4994524;28;20411;-50
2024/02/08 11:15:31;;;;;;;3.65;3.22;;;6.70;99.90;;;;;;4993822;28;20526;-49
2024/02/08 11:18:02;;;;;;;3.33;2.75;;;6.80;99.90;;;;;;4979883;28;20395;-49
2024/02/08 11:20:44;;;;;;;3.35;3.05;;;6.90;99.90;;;;;;4995696;28;20558;-54
2024/02/08 11:23:18;;;;;;;3.60;2.90;;;6.90;99.90;;;;;;4991727;28;20056;-59
2024/02/08 11:25:46;;;;;;;4.30;3.90;;;6.90;99.90;;;;;;4976394;28;20059;-56
2024/02/08 11:28:15;;;;;;;5.47;3.95;;;7.00;99.90;;;;;;4977230;28;20023;-55
2024/02/08 11:30:41;;;;;;;3.55;3.25;;;7.10;99.90;;;;;;4982953;28;20024;-53
2024/02/08 11:33:12;;;;;;;3.25;3.00;;;7.30;99.90;;;;;;4989204;28;20033;-51
2024/02/08 11:35:54;;;;;;;4.22;3.53;;;7.10;99.90;;;;;;4978812;28;20027;-48
2024/02/08 11:38:27;;;;;;;9.05;4.03;;;7.30;99.90;;;;;;4975884;28;20114;-43
2024/02/08 11:40:57;;;;;;;4.00;3.67;;;7.40;99.90;;;;;;4984365;28;20030;-48
2024/02/08 11:43:24;;;;;;;65.55;39.45;;;7.40;99.90;;;;;;4982742;28;20042;-49
2024/02/08 11:45:55;;;;;;;7.75;6.53;;;7.40;99.90;;;;;;4994408;28;20050;-50
2024/02/08 11:48:26;;;;;;;14.65;8.32;;;7.50;99.90;;;;;;4992707;28;20031;-51
2024/02/08 11:51:04;;;;;;;8.77;6.35;;;7.50;99.90;;;;;;4981828;28;20030;-49
2024/02/08 11:53:31;;;;;;;5.28;4.20;;;7.60;99.90;;;;;;5002846;28;20026;-50
2024/02/08 11:56:08;;;;;;;5.28;3.85;;;7.70;99.90;;;;;;5012598;28;20066;-52
2024/02/08 11:58:42;;;;;;;5.88;3.80;;;7.80;99.90;;;;;;5002274;28;20109;-49
2024/02/08 12:01:14;;;;;;;6.50;3.47;;;7.80;99.90;;;;;;4978223;28;20484;-51
2024/02/08 12:03:43;;;;;;;5.93;3.95;;;7.80;99.90;;;;;;4988977;28;20038;-52
2024/02/08 12:06:21;;;;;;;5.25;4.10;;;7.90;99.90;;;;;;4994335;28;20488;-49
2024/02/08 12:09:06;;;;;;;4.68;3.50;;;8.10;99.90;;;;;;4994359;28;20396;-47
2024/02/08 12:11:33;;;;;;;4.38;3.97;;;8.20;99.90;;;;;;4990674;28;20041;-49
2024/02/08 12:14:01;;;;;;;4.75;4.25;;;8.20;99.90;;;;;;4973062;28;20027;-48
2024/02/08 12:16:29;;;;;;;5.53;4.38;;;8.30;99.90;;;;;;4975122;28;20563;-52
2024/02/08 12:18:56;;;;;;;5.38;4.65;;;8.30;99.90;;;;;;4991489;28;20061;-48
2024/02/08 12:21:23;;;;;;;4.80;4.25;;;8.20;99.90;;;;;;4995063;28;20022;-53
2024/02/08 12:23:54;;;;;;;5.97;4.10;;;8.20;99.90;;;;;;4995169;28;20487;-53
2024/02/08 12:26:23;;;;;;;4.72;4.32;;;8.30;99.90;;;;;;4993062;28;20029;-53
2024/02/08 12:28:56;;;;;;;4.90;4.15;;;8.30;99.90;;;;;;4994031;28;20026;-51
2024/02/08 12:31:24;;;;;;;5.60;4.63;;;8.40;99.90;;;;;;4994048;28;20095;-53
2024/02/08 12:33:51;;;;;;;6.47;5.07;;;8.50;99.90;;;;;;4993457;28;20026;-51
2024/02/08 12:36:19;;;;;;;6.00;5.40;;;8.50;99.90;;;;;;4993948;28;20026;-51
2024/02/08 12:38:50;;;;;;;5.72;4.57;;;8.60;99.90;;;;;;4993890;28;20029;-48
2024/02/08 12:41:16;;;;;;;6.32;4.97;;;8.50;99.90;;;;;;4986869;28;20502;-51
2024/02/08 12:43:46;;;;;;;6.55;5.45;;;8.50;99.90;;;;;;4973103;28;20038;-49
2024/02/08 12:46:15;;;;;;;5.32;4.70;;;8.40;99.90;;;;;;4972664;28;20030;-51
2024/02/08 12:48:40;;;;;;;6.85;6.15;;;8.40;99.90;;;;;;4974003;28;20033;-48
2024/02/08 12:51:13;;;;;;;5.95;5.35;;;8.40;99.90;;;;;;5010243;23;20129;-47
2024/02/08 12:53:39;;;;;;;5.70;5.00;;;8.40;99.90;;;;;;4992413;28;20407;-48
2024/02/08 12:56:09;;;;;;;6.75;5.38;;;8.40;99.90;;;;;;4994713;28;20022;-48
2024/02/08 12:58:37;;;;;;;6.13;5.18;;;8.40;99.90;;;;;;4991929;28;20034;-47
2024/02/08 13:01:07;;;;;;;6.60;5.18;;;8.50;99.90;;;;;;4976297;28;20054;-48
2024/02/08 13:03:34;;;;;;;7.30;5.50;;;8.60;99.90;;;;;;4955232;28;20492;-48
2024/02/08 13:06:02;;;;;;;7.50;5.85;;;8.60;99.90;;;;;;4973540;28;20027;-48
2024/02/08 13:08:33;;;;;;;6.97;5.97;;;8.70;99.90;;;;;;4973708;28;20023;-46
2024/02/08 13:11:00;;;;;;;7.00;5.57;;;8.60;99.90;;;;;;4973157;28;20019;-48
2024/02/08 13:13:26;;;;;;;7.15;6.38;;;8.60;99.90;;;;;;4972259;28;20034;-48
2024/02/08 13:16:01;;;;;;;6.70;6.00;;;8.60;99.90;;;;;;4973327;28;20031;-47
2024/02/08 13:18:30;;;;;;;8.00;6.05;;;8.70;99.90;;;;;;4976428;28;20400;-49
2024/02/08 13:21:00;;;;;;;7.13;6.22;;;8.70;99.90;;;;;;4976680;28;20035;-52
2024/02/08 13:23:29;;;;;;;9.75;5.55;;;8.70;99.90;;;;;;4974729;28;20488;-51
2024/02/08 13:25:54;;;;;;;7.40;5.75;;;8.70;99.90;;;;;;4976338;28;20030;-51
2024/02/08 13:28:24;;;;;;;7.32;5.50;;;8.70;99.90;;;;;;4991524;28;20446;-53
2024/02/08 13:30:54;;;;;;;7.05;6.03;;;8.80;99.90;;;;;;4992577;28;20405;-47
2024/02/08 13:33:20;;;;;;;7.70;5.82;;;8.90;99.90;;;;;;4976545;28;20023;-48
2024/02/08 13:35:46;;;;;;;8.20;6.15;;;8.90;99.90;;;;;;4976654;28;20089;-49
2024/02/08 13:38:12;;;;;;;7.38;5.95;;;8.90;99.90;;;;;;4977954;28;20027;-47
2024/02/08 13:40:42;;;;;;;9.48;5.22;;;8.90;99.90;;;;;;4978029;28;20531;-47
2024/02/08 13:43:12;;;;;;;9.13;4.93;;;9.10;99.90;;;;;;4976063;28;20023;-47
2024/02/08 13:45:39;;;;;;;9.35;5.35;;;9.20;99.90;;;;;;4973197;28;20057;-43
2024/02/08 13:48:10;;;;;;;8.80;4.90;;;9.30;99.90;;;;;;4974451;28;20473;-47
2024/02/08 13:50:36;;;;;;;7.55;4.15;;;9.40;99.90;;;;;;4973218;28;20022;-47
2024/02/08 13:53:02;;;;;;;7.43;5.05;;;9.60;99.90;;;;;;4975268;28;20037;-47
2024/02/08 13:55:31;;;;;;;9.15;4.55;;;9.80;99.90;;;;;;4979042;28;20498;-52
2024/02/08 13:57:59;;;;;;;8.88;3.60;;;10.00;99.90;;;;;;4992371;28;20030;-53
2024/02/08 14:00:30;;;;;;;10.05;4.68;;;10.20;99.90;;;;;;4993091;28;20037;-51
2024/02/08 14:02:56;;;;;;;15.95;4.57;;;10.30;99.90;;;;;;4972455;28;20480;-49
2024/02/08 14:05:23;;;;;;;21.85;4.50;;;10.50;99.90;;;;;;4972660;28;20073;-52
2024/02/08 14:07:54;;;;;;;17.85;4.57;;;10.70;99.90;;;;;;4972813;28;20027;-46
2024/02/08 14:10:27;;;;;;;24.88;4.90;;;10.80;99.90;;;;;;4972983;28;20373;-46
2024/02/08 14:12:59;;;;;;;8.57;4.28;;;10.90;99.90;;;;;;4989167;28;20026;-53
2024/02/08 14:15:31;;;;;;;18.23;4.90;;;10.80;99.90;;;;;;5001788;28;20030;-44
2024/02/08 14:20:52;;;;;;;16.20;4.47;;;10.90;99.90;;;;;;4973945;28;20408;-48
2024/02/08 14:23:29;;;;;;;22.58;5.03;;;11.00;99.90;;;;;;4959151;28;20027;-53
2024/02/08 14:28:39;;;;;;;18.65;4.90;;;11.30;99.90;;;;;;4988619;28;20388;-49
2024/02/08 14:31:08;;;;;;;13.40;3.47;;;11.30;99.90;;;;;;4971985;28;20063;-48
2024/02/08 14:33:35;;;;;;;15.13;4.63;;;11.40;99.90;;;;;;4971699;28;20582;-49
2024/02/08 14:36:06;;;;;;;18.20;4.13;;;11.40;99.90;;;;;;4972353;28;20035;-52
2024/02/08 14:38:34;;;;;;;15.65;3.38;;;11.50;99.90;;;;;;4984765;28;20065;-50
2024/02/08 14:41:00;;;;;;;24.10;3.65;;;11.50;99.90;;;;;;4992311;28;20019;-49
2024/02/08 14:43:25;;;;;;;17.42;4.72;;;11.60;99.90;;;;;;4989557;28;20101;-45
2024/02/08 14:45:53;;;;;;;19.40;4.00;;;11.70;99.90;;;;;;4983361;28;20015;-48
2024/02/08 14:48:27;;;;;;;17.83;3.58;;;11.70;99.90;;;;;;4972637;28;20027;-52
2024/02/08 14:53:44;;;;;;;19.50;4.88;;;11.70;99.90;;;;;;4991282;28;20057;-48
2024/02/08 14:56:10;;;;;;;22.75;4.93;;;11.80;99.90;;;;;;4991832;28;20105;-53
2024/02/08 14:58:55;;;;;;;23.52;4.43;;;11.70;99.90;;;;;;4985296;28;20143;-52
2024/02/08 15:01:39;;;;;;;21.60;4.80;;;11.80;99.90;;;;;;4972422;28;20118;-46
2024/02/08 15:04:15;;;;;;;21.70;4.60;;;11.80;99.90;;;;;;4980582;28;20030;-50
2024/02/08 15:12:27;;;;;;;27.25;5.50;;;11.80;99.90;;;;;;4995250;28;20132;-56
2024/02/08 15:14:55;;;;;;;23.65;5.70;;;11.80;99.90;;;;;;4975156;28;20030;-51
2024/02/08 15:17:26;;;;;;;16.08;3.90;;;11.80;99.90;;;;;;4986395;28;20105;-47
2024/02/08 15:19:52;;;;;;;25.05;4.57;;;11.70;99.90;;;;;;4984424;28;20023;-53
2024/02/08 15:25:03;;;;;;;23.58;4.47;;;11.80;99.90;;;;;;4999883;28;20027;-51
2024/02/08 15:27:32;;;;;;;21.92;6.13;;;11.80;99.90;;;;;;4981457;28;20051;-49
2024/02/08 15:30:17;;;;;;;22.85;5.28;;;11.80;99.90;;;;;;4975406;28;20081;-47
2024/02/08 15:33:16;;;;;;;22.80;5.38;;;11.80;99.90;;;;;;4974996;28;20147;-51
2024/02/08 15:35:51;;;;;;;22.63;4.70;;;11.80;99.90;;;;;;4973975;28;20066;-52
2024/02/08 15:41:06;;;;;;;20.20;4.88;;;11.80;99.90;;;;;;4976540;28;20110;-48